sensor_id;sensor_type;location;lat;lon;timestamp;P1;durP1;ratioP1;P2;durP2;ratioP2
61096;SDS011;46977;50.936;6.908;2022-09-30T00:02:43;16.75;;;8.25;;
61096;SDS011;46977;50.936;6.908;2022-09-30T00:05:45;15.98;;;9.05;;
61096;SDS011;46977;50.936;6.908;2022-09-30T00:08:48;15.70;;;8.45;;
61096;SDS011;46977;50.936;6.908;2022-09-30T00:11:50;11.93;;;7.05;;
61096;SDS011;46977;50.936;6.908;2022-09-30T00:14:54;12.88;;;7.22;;
61096;SDS011;46977;50.936;6.908;2022-09-30T00:17:56;14.18;;;7.07;;
61096;SDS011;46977;50.936;6.908;2022-09-30T00:21:00;16.65;;;7.72;;
61096;SDS011;46977;50.936;6.908;2022-09-30T00:24:03;14.48;;;8.13;;
61096;SDS011;46977;50.936;6.908;2022-09-30T00:27:06;14.75;;;7.63;;
61096;SDS011;46977;50.936;6.908;2022-09-30T00:30:10;13.15;;;7.93;;
61096;SDS011;46977;50.936;6.908;2022-09-30T00:33:12;12.98;;;7.15;;
61096;SDS011;46977;50.936;6.908;2022-09-30T00:36:14;13.15;;;7.30;;
61096;SDS011;46977;50.936;6.908;2022-09-30T00:39:17;10.10;;;6.70;;
61096;SDS011;46977;50.936;6.908;2022-09-30T00:42:20;14.50;;;8.05;;
61096;SDS011;46977;50.936;6.908;2022-09-30T00:45:25;16.58;;;7.05;;
61096;SDS011;46977;50.936;6.908;2022-09-30T00:48:28;15.38;;;8.05;;
61096;SDS011;46977;50.936;6.908;2022-09-30T00:51:34;15.40;;;7.68;;
61096;SDS011;46977;50.936;6.908;2022-09-30T00:54:38;14.73;;;6.70;;
61096;SDS011;46977;50.936;6.908;2022-09-30T00:57:40;12.23;;;7.68;;
61096;SDS011;46977;50.936;6.908;2022-09-30T01:00:44;10.45;;;6.82;;
61096;SDS011;46977;50.936;6.908;2022-09-30T01:03:47;10.35;;;7.10;;
61096;SDS011;46977;50.936;6.908;2022-09-30T01:06:51;12.52;;;7.57;;
61096;SDS011;46977;50.936;6.908;2022-09-30T01:09:54;12.35;;;7.00;;
61096;SDS011;46977;50.936;6.908;2022-09-30T01:12:58;9.93;;;6.70;;
61096;SDS011;46977;50.936;6.908;2022-09-30T01:19:51;17.83;;;9.40;;
61096;SDS011;46977;50.936;6.908;2022-09-30T01:23:37;13.90;;;7.60;;
61096;SDS011;46977;50.936;6.908;2022-09-30T01:27:10;13.50;;;6.75;;
61096;SDS011;46977;50.936;6.908;2022-09-30T01:30:19;14.10;;;6.78;;
61096;SDS011;46977;50.936;6.908;2022-09-30T01:33:26;11.15;;;7.65;;
61096;SDS011;46977;50.936;6.908;2022-09-30T01:36:36;12.48;;;6.97;;
61096;SDS011;46977;50.936;6.908;2022-09-30T01:39:47;11.80;;;7.70;;
61096;SDS011;46977;50.936;6.908;2022-09-30T01:42:54;14.63;;;6.88;;
61096;SDS011;46977;50.936;6.908;2022-09-30T01:46:01;15.68;;;7.55;;
61096;SDS011;46977;50.936;6.908;2022-09-30T01:49:08;15.02;;;8.55;;
61096;SDS011;46977;50.936;6.908;2022-09-30T01:52:14;14.20;;;8.18;;
61096;SDS011;46977;50.936;6.908;2022-09-30T01:55:18;12.80;;;8.10;;
61096;SDS011;46977;50.936;6.908;2022-09-30T01:58:23;11.80;;;7.80;;
61096;SDS011;46977;50.936;6.908;2022-09-30T02:01:32;12.80;;;8.00;;
61096;SDS011;46977;50.936;6.908;2022-09-30T02:04:40;18.08;;;9.30;;
61096;SDS011;46977;50.936;6.908;2022-09-30T02:07:44;16.45;;;7.97;;
61096;SDS011;46977;50.936;6.908;2022-09-30T02:10:48;13.38;;;7.60;;
61096;SDS011;46977;50.936;6.908;2022-09-30T02:13:55;15.63;;;7.78;;
61096;SDS011;46977;50.936;6.908;2022-09-30T02:17:02;15.57;;;7.63;;
61096;SDS011;46977;50.936;6.908;2022-09-30T02:20:08;12.95;;;8.23;;
61096;SDS011;46977;50.936;6.908;2022-09-30T02:23:13;15.68;;;8.52;;
61096;SDS011;46977;50.936;6.908;2022-09-30T02:26:18;15.18;;;8.70;;
61096;SDS011;46977;50.936;6.908;2022-09-30T02:29:23;15.88;;;9.00;;
61096;SDS011;46977;50.936;6.908;2022-09-30T02:32:29;14.55;;;8.43;;
61096;SDS011;46977;50.936;6.908;2022-09-30T02:35:36;15.25;;;8.02;;
61096;SDS011;46977;50.936;6.908;2022-09-30T02:38:41;19.67;;;8.13;;
61096;SDS011;46977;50.936;6.908;2022-09-30T02:41:46;15.73;;;7.93;;
61096;SDS011;46977;50.936;6.908;2022-09-30T02:44:51;15.82;;;9.38;;
61096;SDS011;46977;50.936;6.908;2022-09-30T02:48:00;15.05;;;8.35;;
61096;SDS011;46977;50.936;6.908;2022-09-30T02:51:08;16.13;;;7.43;;
61096;SDS011;46977;50.936;6.908;2022-09-30T02:54:15;13.90;;;7.68;;
61096;SDS011;46977;50.936;6.908;2022-09-30T02:57:21;17.15;;;8.57;;
61096;SDS011;46977;50.936;6.908;2022-09-30T03:00:28;16.98;;;8.57;;
61096;SDS011;46977;50.936;6.908;2022-09-30T03:03:31;20.52;;;9.30;;
61096;SDS011;46977;50.936;6.908;2022-09-30T03:06:36;15.20;;;8.55;;
61096;SDS011;46977;50.936;6.908;2022-09-30T03:09:39;14.90;;;7.65;;
61096;SDS011;46977;50.936;6.908;2022-09-30T03:12:45;13.73;;;8.18;;
61096;SDS011;46977;50.936;6.908;2022-09-30T03:16:01;15.43;;;8.25;;
61096;SDS011;46977;50.936;6.908;2022-09-30T03:19:25;20.13;;;8.63;;
61096;SDS011;46977;50.936;6.908;2022-09-30T03:22:42;16.85;;;7.55;;
61096;SDS011;46977;50.936;6.908;2022-09-30T03:25:54;14.27;;;7.80;;
61096;SDS011;46977;50.936;6.908;2022-09-30T03:29:02;17.52;;;8.85;;
61096;SDS011;46977;50.936;6.908;2022-09-30T03:32:13;18.80;;;8.98;;
61096;SDS011;46977;50.936;6.908;2022-09-30T03:35:26;14.40;;;8.60;;
61096;SDS011;46977;50.936;6.908;2022-09-30T03:38:35;18.45;;;8.23;;
61096;SDS011;46977;50.936;6.908;2022-09-30T03:41:41;17.73;;;8.05;;
61096;SDS011;46977;50.936;6.908;2022-09-30T03:44:49;16.92;;;8.52;;
61096;SDS011;46977;50.936;6.908;2022-09-30T03:48:00;14.57;;;8.10;;
61096;SDS011;46977;50.936;6.908;2022-09-30T03:51:04;14.55;;;7.55;;
61096;SDS011;46977;50.936;6.908;2022-09-30T03:54:09;13.27;;;7.22;;
61096;SDS011;46977;50.936;6.908;2022-09-30T03:57:13;15.23;;;7.93;;
61096;SDS011;46977;50.936;6.908;2022-09-30T04:00:16;12.98;;;6.68;;
61096;SDS011;46977;50.936;6.908;2022-09-30T04:03:20;13.20;;;8.40;;
61096;SDS011;46977;50.936;6.908;2022-09-30T04:06:23;18.88;;;8.65;;
61096;SDS011;46977;50.936;6.908;2022-09-30T04:09:27;13.27;;;7.70;;
61096;SDS011;46977;50.936;6.908;2022-09-30T04:12:29;14.93;;;7.68;;
61096;SDS011;46977;50.936;6.908;2022-09-30T04:15:32;16.27;;;8.32;;
61096;SDS011;46977;50.936;6.908;2022-09-30T04:18:34;13.65;;;7.53;;
61096;SDS011;46977;50.936;6.908;2022-09-30T04:21:38;15.63;;;8.55;;
61096;SDS011;46977;50.936;6.908;2022-09-30T04:24:41;14.77;;;8.60;;
61096;SDS011;46977;50.936;6.908;2022-09-30T04:27:44;15.38;;;8.05;;
61096;SDS011;46977;50.936;6.908;2022-09-30T04:30:46;11.40;;;8.10;;
61096;SDS011;46977;50.936;6.908;2022-09-30T04:33:49;16.58;;;8.98;;
61096;SDS011;46977;50.936;6.908;2022-09-30T04:36:51;14.52;;;7.95;;
61096;SDS011;46977;50.936;6.908;2022-09-30T04:39:55;12.45;;;8.25;;
61096;SDS011;46977;50.936;6.908;2022-09-30T04:42:57;20.77;;;8.98;;
61096;SDS011;46977;50.936;6.908;2022-09-30T04:45:59;14.75;;;8.13;;
61096;SDS011;46977;50.936;6.908;2022-09-30T04:49:02;18.35;;;8.63;;
61096;SDS011;46977;50.936;6.908;2022-09-30T04:52:10;18.38;;;8.55;;
61096;SDS011;46977;50.936;6.908;2022-09-30T04:55:13;20.35;;;8.45;;
61096;SDS011;46977;50.936;6.908;2022-09-30T04:58:16;16.30;;;8.48;;
61096;SDS011;46977;50.936;6.908;2022-09-30T05:01:18;25.77;;;8.60;;
61096;SDS011;46977;50.936;6.908;2022-09-30T05:04:20;16.42;;;7.97;;
61096;SDS011;46977;50.936;6.908;2022-09-30T05:07:23;18.83;;;8.90;;
61096;SDS011;46977;50.936;6.908;2022-09-30T05:10:27;18.20;;;9.15;;
61096;SDS011;46977;50.936;6.908;2022-09-30T05:13:31;16.58;;;8.15;;
61096;SDS011;46977;50.936;6.908;2022-09-30T05:16:34;23.13;;;9.32;;
61096;SDS011;46977;50.936;6.908;2022-09-30T05:19:38;19.50;;;9.00;;
61096;SDS011;46977;50.936;6.908;2022-09-30T05:22:40;18.92;;;10.18;;
61096;SDS011;46977;50.936;6.908;2022-09-30T05:25:44;17.85;;;8.75;;
61096;SDS011;46977;50.936;6.908;2022-09-30T05:28:48;16.58;;;8.95;;
61096;SDS011;46977;50.936;6.908;2022-09-30T05:31:50;22.60;;;9.45;;
61096;SDS011;46977;50.936;6.908;2022-09-30T05:34:53;13.77;;;7.93;;
61096;SDS011;46977;50.936;6.908;2022-09-30T05:37:56;16.58;;;9.40;;
61096;SDS011;46977;50.936;6.908;2022-09-30T05:41:05;17.92;;;8.45;;
61096;SDS011;46977;50.936;6.908;2022-09-30T05:44:09;17.58;;;8.95;;
61096;SDS011;46977;50.936;6.908;2022-09-30T05:47:11;21.13;;;9.05;;
61096;SDS011;46977;50.936;6.908;2022-09-30T05:50:14;17.60;;;8.32;;
61096;SDS011;46977;50.936;6.908;2022-09-30T05:53:16;15.60;;;7.88;;
61096;SDS011;46977;50.936;6.908;2022-09-30T05:56:20;13.23;;;7.22;;
61096;SDS011;46977;50.936;6.908;2022-09-30T05:59:22;13.68;;;6.93;;
61096;SDS011;46977;50.936;6.908;2022-09-30T06:02:24;10.80;;;6.55;;
61096;SDS011;46977;50.936;6.908;2022-09-30T06:05:27;11.40;;;5.93;;
61096;SDS011;46977;50.936;6.908;2022-09-30T06:08:29;15.40;;;6.53;;
61096;SDS011;46977;50.936;6.908;2022-09-30T06:11:33;10.63;;;6.55;;
61096;SDS011;46977;50.936;6.908;2022-09-30T06:14:38;12.95;;;7.63;;
61096;SDS011;46977;50.936;6.908;2022-09-30T06:17:40;9.52;;;5.90;;
61096;SDS011;46977;50.936;6.908;2022-09-30T06:20:43;10.68;;;6.97;;
61096;SDS011;46977;50.936;6.908;2022-09-30T06:23:45;10.05;;;5.70;;
61096;SDS011;46977;50.936;6.908;2022-09-30T06:26:54;10.00;;;6.68;;
61096;SDS011;46977;50.936;6.908;2022-09-30T06:30:06;14.95;;;7.85;;
61096;SDS011;46977;50.936;6.908;2022-09-30T06:33:10;10.68;;;5.85;;
61096;SDS011;46977;50.936;6.908;2022-09-30T06:36:17;14.95;;;6.90;;
61096;SDS011;46977;50.936;6.908;2022-09-30T06:39:19;12.38;;;6.15;;
61096;SDS011;46977;50.936;6.908;2022-09-30T06:42:23;13.98;;;7.18;;
61096;SDS011;46977;50.936;6.908;2022-09-30T06:45:26;12.27;;;6.72;;
61096;SDS011;46977;50.936;6.908;2022-09-30T06:48:33;17.58;;;7.50;;
61096;SDS011;46977;50.936;6.908;2022-09-30T06:51:39;16.65;;;8.63;;
61096;SDS011;46977;50.936;6.908;2022-09-30T06:54:42;24.50;;;8.00;;
61096;SDS011;46977;50.936;6.908;2022-09-30T06:57:46;20.90;;;8.55;;
61096;SDS011;46977;50.936;6.908;2022-09-30T07:00:54;17.85;;;8.98;;
61096;SDS011;46977;50.936;6.908;2022-09-30T07:03:57;18.63;;;8.98;;
61096;SDS011;46977;50.936;6.908;2022-09-30T07:07:10;20.60;;;9.45;;
61096;SDS011;46977;50.936;6.908;2022-09-30T07:10:16;18.70;;;9.18;;
61096;SDS011;46977;50.936;6.908;2022-09-30T07:13:19;25.80;;;10.80;;
61096;SDS011;46977;50.936;6.908;2022-09-30T07:26:38;24.35;;;11.18;;
61096;SDS011;46977;50.936;6.908;2022-09-30T07:35:20;23.42;;;11.55;;
61096;SDS011;46977;50.936;6.908;2022-09-30T07:38:23;29.63;;;13.55;;
61096;SDS011;46977;50.936;6.908;2022-09-30T07:41:27;28.52;;;13.48;;
61096;SDS011;46977;50.936;6.908;2022-09-30T07:44:30;31.90;;;13.43;;
61096;SDS011;46977;50.936;6.908;2022-09-30T07:47:32;29.98;;;14.15;;
61096;SDS011;46977;50.936;6.908;2022-09-30T07:50:36;28.95;;;12.38;;
61096;SDS011;46977;50.936;6.908;2022-09-30T07:53:39;30.70;;;13.85;;
61096;SDS011;46977;50.936;6.908;2022-09-30T07:56:42;30.23;;;12.65;;
61096;SDS011;46977;50.936;6.908;2022-09-30T08:00:05;23.05;;;13.00;;
61096;SDS011;46977;50.936;6.908;2022-09-30T08:03:29;28.65;;;12.18;;
61096;SDS011;46977;50.936;6.908;2022-09-30T08:06:35;27.55;;;12.77;;
61096;SDS011;46977;50.936;6.908;2022-09-30T08:09:38;23.75;;;13.07;;
61096;SDS011;46977;50.936;6.908;2022-09-30T08:12:40;24.20;;;13.05;;
61096;SDS011;46977;50.936;6.908;2022-09-30T08:15:42;21.90;;;13.35;;
61096;SDS011;46977;50.936;6.908;2022-09-30T08:18:45;19.20;;;10.80;;
61096;SDS011;46977;50.936;6.908;2022-09-30T08:21:49;18.30;;;10.43;;
61096;SDS011;46977;50.936;6.908;2022-09-30T08:24:52;19.25;;;10.93;;
61096;SDS011;46977;50.936;6.908;2022-09-30T08:27:54;20.42;;;12.00;;
61096;SDS011;46977;50.936;6.908;2022-09-30T08:31:02;20.20;;;11.50;;
61096;SDS011;46977;50.936;6.908;2022-09-30T08:34:05;21.13;;;11.43;;
61096;SDS011;46977;50.936;6.908;2022-09-30T08:37:08;20.27;;;10.57;;
61096;SDS011;46977;50.936;6.908;2022-09-30T08:40:16;20.13;;;10.45;;
61096;SDS011;46977;50.936;6.908;2022-09-30T08:43:23;17.55;;;10.95;;
61096;SDS011;46977;50.936;6.908;2022-09-30T08:46:32;21.27;;;10.85;;
61096;SDS011;46977;50.936;6.908;2022-09-30T08:52:48;15.88;;;9.38;;
61096;SDS011;46977;50.936;6.908;2022-09-30T08:55:53;15.13;;;9.68;;
61096;SDS011;46977;50.936;6.908;2022-09-30T08:58:58;15.98;;;9.52;;
61096;SDS011;46977;50.936;6.908;2022-09-30T09:02:10;16.98;;;9.88;;
61096;SDS011;46977;50.936;6.908;2022-09-30T09:05:23;16.42;;;9.57;;
61096;SDS011;46977;50.936;6.908;2022-09-30T09:08:33;16.58;;;9.13;;
61096;SDS011;46977;50.936;6.908;2022-09-30T09:11:44;19.98;;;9.70;;
61096;SDS011;46977;50.936;6.908;2022-09-30T09:14:55;15.93;;;9.55;;
61096;SDS011;46977;50.936;6.908;2022-09-30T09:18:21;16.25;;;9.60;;
61096;SDS011;46977;50.936;6.908;2022-09-30T09:21:31;14.00;;;9.35;;
61096;SDS011;46977;50.936;6.908;2022-09-30T09:24:42;15.57;;;8.32;;
61096;SDS011;46977;50.936;6.908;2022-09-30T09:27:48;12.32;;;8.60;;
61096;SDS011;46977;50.936;6.908;2022-09-30T09:30:55;14.80;;;7.97;;
61096;SDS011;46977;50.936;6.908;2022-09-30T09:34:00;12.38;;;7.88;;
61096;SDS011;46977;50.936;6.908;2022-09-30T09:37:11;13.15;;;8.93;;
61096;SDS011;46977;50.936;6.908;2022-09-30T09:40:19;12.40;;;7.88;;
61096;SDS011;46977;50.936;6.908;2022-09-30T09:43:32;13.05;;;8.70;;
61096;SDS011;46977;50.936;6.908;2022-09-30T09:46:43;12.57;;;9.00;;
61096;SDS011;46977;50.936;6.908;2022-09-30T09:49:47;14.43;;;8.23;;
61096;SDS011;46977;50.936;6.908;2022-09-30T09:53:00;14.48;;;8.73;;
61096;SDS011;46977;50.936;6.908;2022-09-30T09:56:21;11.77;;;8.32;;
61096;SDS011;46977;50.936;6.908;2022-09-30T09:59:33;12.95;;;8.20;;
61096;SDS011;46977;50.936;6.908;2022-09-30T10:02:35;14.90;;;8.05;;
61096;SDS011;46977;50.936;6.908;2022-09-30T10:05:40;11.65;;;8.52;;
61096;SDS011;46977;50.936;6.908;2022-09-30T10:08:51;14.15;;;9.13;;
61096;SDS011;46977;50.936;6.908;2022-09-30T10:15:31;11.63;;;8.73;;
61096;SDS011;46977;50.936;6.908;2022-09-30T10:18:34;14.95;;;8.75;;
61096;SDS011;46977;50.936;6.908;2022-09-30T10:21:37;13.35;;;8.57;;
61096;SDS011;46977;50.936;6.908;2022-09-30T10:24:40;14.55;;;8.63;;
61096;SDS011;46977;50.936;6.908;2022-09-30T10:27:47;11.57;;;7.68;;
61096;SDS011;46977;50.936;6.908;2022-09-30T10:30:52;10.40;;;5.65;;
61096;SDS011;46977;50.936;6.908;2022-09-30T10:33:58;9.68;;;5.95;;
61096;SDS011;46977;50.936;6.908;2022-09-30T10:37:07;9.90;;;6.18;;
61096;SDS011;46977;50.936;6.908;2022-09-30T10:40:14;9.15;;;5.57;;
61096;SDS011;46977;50.936;6.908;2022-09-30T10:43:19;11.18;;;5.75;;
61096;SDS011;46977;50.936;6.908;2022-09-30T10:46:23;7.00;;;5.10;;
61096;SDS011;46977;50.936;6.908;2022-09-30T10:49:29;6.40;;;4.25;;
61096;SDS011;46977;50.936;6.908;2022-09-30T10:52:34;12.73;;;5.03;;
61096;SDS011;46977;50.936;6.908;2022-09-30T10:55:40;12.23;;;5.50;;
61096;SDS011;46977;50.936;6.908;2022-09-30T10:58:46;7.55;;;4.70;;
61096;SDS011;46977;50.936;6.908;2022-09-30T11:01:50;8.20;;;4.20;;
61096;SDS011;46977;50.936;6.908;2022-09-30T11:05:01;7.57;;;4.53;;
61096;SDS011;46977;50.936;6.908;2022-09-30T11:08:09;9.32;;;5.00;;
61096;SDS011;46977;50.936;6.908;2022-09-30T11:11:16;10.75;;;5.30;;
61096;SDS011;46977;50.936;6.908;2022-09-30T11:14:25;8.68;;;4.35;;
61096;SDS011;46977;50.936;6.908;2022-09-30T11:17:32;7.78;;;3.75;;
61096;SDS011;46977;50.936;6.908;2022-09-30T11:20:44;9.13;;;3.47;;
61096;SDS011;46977;50.936;6.908;2022-09-30T11:23:51;5.82;;;3.53;;
61096;SDS011;46977;50.936;6.908;2022-09-30T11:26:56;4.85;;;3.30;;
61096;SDS011;46977;50.936;6.908;2022-09-30T11:30:09;8.65;;;3.95;;
61096;SDS011;46977;50.936;6.908;2022-09-30T11:33:21;9.73;;;5.03;;
61096;SDS011;46977;50.936;6.908;2022-09-30T11:36:45;6.40;;;4.35;;
61096;SDS011;46977;50.936;6.908;2022-09-30T11:43:32;9.07;;;2.97;;
61096;SDS011;46977;50.936;6.908;2022-09-30T11:46:46;5.90;;;2.70;;
61096;SDS011;46977;50.936;6.908;2022-09-30T11:50:17;6.25;;;2.45;;
61096;SDS011;46977;50.936;6.908;2022-09-30T11:53:26;5.40;;;3.08;;
61096;SDS011;46977;50.936;6.908;2022-09-30T11:56:37;6.05;;;3.28;;
61096;SDS011;46977;50.936;6.908;2022-09-30T11:59:44;5.55;;;2.85;;
61096;SDS011;46977;50.936;6.908;2022-09-30T12:02:51;5.82;;;2.88;;
61096;SDS011;46977;50.936;6.908;2022-09-30T12:05:57;3.75;;;2.78;;
61096;SDS011;46977;50.936;6.908;2022-09-30T12:09:05;5.18;;;3.15;;
61096;SDS011;46977;50.936;6.908;2022-09-30T12:12:12;3.67;;;2.30;;
61096;SDS011;46977;50.936;6.908;2022-09-30T12:15:19;5.32;;;2.28;;
61096;SDS011;46977;50.936;6.908;2022-09-30T12:18:26;6.85;;;2.10;;
61096;SDS011;46977;50.936;6.908;2022-09-30T12:21:31;1.30;;;1.13;;
61096;SDS011;46977;50.936;6.908;2022-09-30T12:24:36;4.43;;;1.45;;
61096;SDS011;46977;50.936;6.908;2022-09-30T12:27:41;3.50;;;1.23;;
61096;SDS011;46977;50.936;6.908;2022-09-30T12:30:49;3.90;;;1.20;;
61096;SDS011;46977;50.936;6.908;2022-09-30T12:34:05;4.70;;;2.08;;
61096;SDS011;46977;50.936;6.908;2022-09-30T12:37:21;2.35;;;1.10;;
61096;SDS011;46977;50.936;6.908;2022-09-30T12:40:33;1.40;;;0.70;;
61096;SDS011;46977;50.936;6.908;2022-09-30T12:47:25;0.73;;;0.60;;
61096;SDS011;46977;50.936;6.908;2022-09-30T12:50:34;2.75;;;0.70;;
61096;SDS011;46977;50.936;6.908;2022-09-30T12:53:42;2.05;;;0.70;;
61096;SDS011;46977;50.936;6.908;2022-09-30T12:56:45;2.47;;;1.10;;
61096;SDS011;46977;50.936;6.908;2022-09-30T12:59:51;1.08;;;1.08;;
61096;SDS011;46977;50.936;6.908;2022-09-30T13:02:56;1.08;;;0.65;;
61096;SDS011;46977;50.936;6.908;2022-09-30T13:06:03;4.25;;;0.77;;
61096;SDS011;46977;50.936;6.908;2022-09-30T13:09:19;3.85;;;0.70;;
61096;SDS011;46977;50.936;6.908;2022-09-30T13:12:26;1.35;;;0.80;;
61096;SDS011;46977;50.936;6.908;2022-09-30T13:15:40;5.13;;;1.00;;
61096;SDS011;46977;50.936;6.908;2022-09-30T13:18:58;3.15;;;0.90;;
61096;SDS011;46977;50.936;6.908;2022-09-30T13:25:54;0.65;;;0.60;;
61096;SDS011;46977;50.936;6.908;2022-09-30T13:32:36;3.30;;;0.68;;
61096;SDS011;46977;50.936;6.908;2022-09-30T13:35:47;2.60;;;0.68;;
61096;SDS011;46977;50.936;6.908;2022-09-30T13:39:04;1.75;;;0.70;;
61096;SDS011;46977;50.936;6.908;2022-09-30T13:42:13;0.57;;;0.57;;
61096;SDS011;46977;50.936;6.908;2022-09-30T13:45:29;3.13;;;1.10;;
61096;SDS011;46977;50.936;6.908;2022-09-30T13:51:42;1.38;;;0.70;;
61096;SDS011;46977;50.936;6.908;2022-09-30T13:54:49;3.33;;;0.90;;
61096;SDS011;46977;50.936;6.908;2022-09-30T13:58:02;1.85;;;0.70;;
61096;SDS011;46977;50.936;6.908;2022-09-30T14:01:17;3.13;;;0.70;;
61096;SDS011;46977;50.936;6.908;2022-09-30T14:04:37;2.10;;;0.55;;
61096;SDS011;46977;50.936;6.908;2022-09-30T14:08:03;2.22;;;0.60;;
61096;SDS011;46977;50.936;6.908;2022-09-30T14:11:17;2.50;;;0.70;;
61096;SDS011;46977;50.936;6.908;2022-09-30T14:14:43;1.38;;;0.70;;
61096;SDS011;46977;50.936;6.908;2022-09-30T14:21:43;0.82;;;0.70;;
61096;SDS011;46977;50.936;6.908;2022-09-30T14:24:48;2.28;;;0.90;;
61096;SDS011;46977;50.936;6.908;2022-09-30T14:28:01;1.08;;;0.70;;
61096;SDS011;46977;50.936;6.908;2022-09-30T14:34:14;0.68;;;0.68;;
61096;SDS011;46977;50.936;6.908;2022-09-30T14:37:18;0.60;;;0.60;;
61096;SDS011;46977;50.936;6.908;2022-09-30T14:40:28;2.78;;;1.00;;
61096;SDS011;46977;50.936;6.908;2022-09-30T14:43:33;2.15;;;0.90;;
61096;SDS011;46977;50.936;6.908;2022-09-30T14:46:44;1.67;;;0.80;;
61096;SDS011;46977;50.936;6.908;2022-09-30T14:49:50;3.42;;;0.90;;
61096;SDS011;46977;50.936;6.908;2022-09-30T14:52:59;1.75;;;0.70;;
61096;SDS011;46977;50.936;6.908;2022-09-30T14:56:13;1.95;;;0.73;;
61096;SDS011;46977;50.936;6.908;2022-09-30T14:59:22;1.00;;;0.90;;
61096;SDS011;46977;50.936;6.908;2022-09-30T15:02:29;2.58;;;1.13;;
61096;SDS011;46977;50.936;6.908;2022-09-30T15:05:31;1.70;;;0.90;;
61096;SDS011;46977;50.936;6.908;2022-09-30T15:08:36;3.58;;;1.25;;
61096;SDS011;46977;50.936;6.908;2022-09-30T15:11:39;2.90;;;1.08;;
61096;SDS011;46977;50.936;6.908;2022-09-30T15:14:44;3.63;;;3.17;;
61096;SDS011;46977;50.936;6.908;2022-09-30T15:17:49;2.53;;;0.90;;
61096;SDS011;46977;50.936;6.908;2022-09-30T15:20:56;1.40;;;1.00;;
61096;SDS011;46977;50.936;6.908;2022-09-30T15:24:00;1.27;;;0.80;;
61096;SDS011;46977;50.936;6.908;2022-09-30T15:27:03;2.13;;;0.80;;
61096;SDS011;46977;50.936;6.908;2022-09-30T15:30:20;2.17;;;0.70;;
61096;SDS011;46977;50.936;6.908;2022-09-30T15:33:26;1.35;;;1.20;;
61096;SDS011;46977;50.936;6.908;2022-09-30T15:36:29;1.20;;;0.80;;
61096;SDS011;46977;50.936;6.908;2022-09-30T15:39:33;1.08;;;0.68;;
61096;SDS011;46977;50.936;6.908;2022-09-30T15:42:56;2.20;;;0.80;;
61096;SDS011;46977;50.936;6.908;2022-09-30T15:49:43;1.25;;;0.60;;
61096;SDS011;46977;50.936;6.908;2022-09-30T15:52:46;0.95;;;0.95;;
61096;SDS011;46977;50.936;6.908;2022-09-30T15:55:52;1.92;;;0.57;;
61096;SDS011;46977;50.936;6.908;2022-09-30T15:58:56;2.00;;;0.80;;
61096;SDS011;46977;50.936;6.908;2022-09-30T16:02:02;2.75;;;0.60;;
61096;SDS011;46977;50.936;6.908;2022-09-30T16:05:05;3.03;;;0.57;;
61096;SDS011;46977;50.936;6.908;2022-09-30T16:08:08;3.78;;;0.80;;
61096;SDS011;46977;50.936;6.908;2022-09-30T16:11:17;1.13;;;0.50;;
61096;SDS011;46977;50.936;6.908;2022-09-30T16:14:23;0.60;;;0.60;;
61096;SDS011;46977;50.936;6.908;2022-09-30T16:17:28;1.83;;;0.60;;
61096;SDS011;46977;50.936;6.908;2022-09-30T16:20:34;2.05;;;0.80;;
61096;SDS011;46977;50.936;6.908;2022-09-30T16:23:37;1.77;;;0.60;;
61096;SDS011;46977;50.936;6.908;2022-09-30T16:26:41;1.38;;;0.80;;
61096;SDS011;46977;50.936;6.908;2022-09-30T16:29:46;4.38;;;0.77;;
61096;SDS011;46977;50.936;6.908;2022-09-30T16:32:48;3.90;;;0.90;;
61096;SDS011;46977;50.936;6.908;2022-09-30T16:35:53;1.10;;;0.68;;
61096;SDS011;46977;50.936;6.908;2022-09-30T16:38:56;2.80;;;0.80;;
61096;SDS011;46977;50.936;6.908;2022-09-30T16:41:58;2.15;;;0.80;;
61096;SDS011;46977;50.936;6.908;2022-09-30T16:45:00;1.65;;;0.80;;
61096;SDS011;46977;50.936;6.908;2022-09-30T16:48:04;1.75;;;0.60;;
61096;SDS011;46977;50.936;6.908;2022-09-30T16:51:14;2.38;;;0.70;;
61096;SDS011;46977;50.936;6.908;2022-09-30T16:54:23;2.63;;;0.75;;
61096;SDS011;46977;50.936;6.908;2022-09-30T16:57:25;0.90;;;0.60;;
61096;SDS011;46977;50.936;6.908;2022-09-30T17:00:28;0.90;;;0.80;;
61096;SDS011;46977;50.936;6.908;2022-09-30T17:03:30;0.90;;;0.60;;
61096;SDS011;46977;50.936;6.908;2022-09-30T17:06:35;2.42;;;0.73;;
61096;SDS011;46977;50.936;6.908;2022-09-30T17:09:38;2.58;;;0.70;;
61096;SDS011;46977;50.936;6.908;2022-09-30T17:12:42;4.65;;;0.90;;
61096;SDS011;46977;50.936;6.908;2022-09-30T17:15:47;1.83;;;1.20;;
61096;SDS011;46977;50.936;6.908;2022-09-30T17:18:50;3.88;;;1.25;;
61096;SDS011;46977;50.936;6.908;2022-09-30T17:21:54;1.92;;;0.90;;
61096;SDS011;46977;50.936;6.908;2022-09-30T17:24:59;1.90;;;1.20;;
61096;SDS011;46977;50.936;6.908;2022-09-30T17:28:02;4.30;;;1.60;;
61096;SDS011;46977;50.936;6.908;2022-09-30T17:31:04;2.85;;;1.88;;
61096;SDS011;46977;50.936;6.908;2022-09-30T17:34:08;5.85;;;1.90;;
61096;SDS011;46977;50.936;6.908;2022-09-30T17:37:12;4.90;;;1.60;;
61096;SDS011;46977;50.936;6.908;2022-09-30T17:40:15;4.38;;;1.92;;
61096;SDS011;46977;50.936;6.908;2022-09-30T17:43:36;4.63;;;1.50;;
61096;SDS011;46977;50.936;6.908;2022-09-30T17:46:44;3.20;;;1.17;;
61096;SDS011;46977;50.936;6.908;2022-09-30T17:50:01;2.03;;;1.35;;
61096;SDS011;46977;50.936;6.908;2022-09-30T17:53:05;2.70;;;1.42;;
61096;SDS011;46977;50.936;6.908;2022-09-30T17:56:13;2.88;;;1.10;;
61096;SDS011;46977;50.936;6.908;2022-09-30T17:59:18;2.55;;;1.60;;
61096;SDS011;46977;50.936;6.908;2022-09-30T18:02:22;3.78;;;1.08;;
61096;SDS011;46977;50.936;6.908;2022-09-30T18:05:27;1.52;;;0.95;;
61096;SDS011;46977;50.936;6.908;2022-09-30T18:08:31;3.42;;;1.30;;
61096;SDS011;46977;50.936;6.908;2022-09-30T18:11:34;2.10;;;1.20;;
61096;SDS011;46977;50.936;6.908;2022-09-30T18:14:44;3.58;;;1.20;;
61096;SDS011;46977;50.936;6.908;2022-09-30T18:17:47;2.03;;;1.20;;
61096;SDS011;46977;50.936;6.908;2022-09-30T18:20:49;2.63;;;1.50;;
61096;SDS011;46977;50.936;6.908;2022-09-30T18:23:53;1.80;;;1.00;;
61096;SDS011;46977;50.936;6.908;2022-09-30T18:26:58;2.72;;;1.58;;
61096;SDS011;46977;50.936;6.908;2022-09-30T18:30:00;3.53;;;1.40;;
61096;SDS011;46977;50.936;6.908;2022-09-30T18:33:03;3.58;;;1.50;;
61096;SDS011;46977;50.936;6.908;2022-09-30T18:36:07;1.52;;;1.20;;
61096;SDS011;46977;50.936;6.908;2022-09-30T18:39:12;4.00;;;1.80;;
61096;SDS011;46977;50.936;6.908;2022-09-30T18:42:14;3.35;;;1.48;;
61096;SDS011;46977;50.936;6.908;2022-09-30T18:45:18;2.47;;;1.65;;
61096;SDS011;46977;50.936;6.908;2022-09-30T18:48:22;1.45;;;1.30;;
61096;SDS011;46977;50.936;6.908;2022-09-30T18:51:27;5.97;;;2.50;;
61096;SDS011;46977;50.936;6.908;2022-09-30T18:54:33;3.47;;;1.85;;
61096;SDS011;46977;50.936;6.908;2022-09-30T18:57:36;3.03;;;2.00;;
61096;SDS011;46977;50.936;6.908;2022-09-30T19:00:39;2.72;;;1.75;;
61096;SDS011;46977;50.936;6.908;2022-09-30T19:03:42;3.83;;;2.13;;
61096;SDS011;46977;50.936;6.908;2022-09-30T19:06:44;4.53;;;2.75;;
61096;SDS011;46977;50.936;6.908;2022-09-30T19:09:49;5.65;;;2.88;;
61096;SDS011;46977;50.936;6.908;2022-09-30T19:12:52;4.35;;;2.17;;
61096;SDS011;46977;50.936;6.908;2022-09-30T19:15:54;5.63;;;1.70;;
61096;SDS011;46977;50.936;6.908;2022-09-30T19:18:58;2.42;;;1.98;;
61096;SDS011;46977;50.936;6.908;2022-09-30T19:22:02;4.03;;;2.35;;
61096;SDS011;46977;50.936;6.908;2022-09-30T19:25:09;3.35;;;2.10;;
61096;SDS011;46977;50.936;6.908;2022-09-30T19:28:17;3.28;;;2.00;;